Time;durP1;ratioP1;P1;durP2;ratioP2;P2;SDS_P1;SDS_P2;PMS_P1;PMS_P2;Temp;Humidity;BMP_temperature;BMP_pressure;BME280_temperature;BME280_humidity;BME280_pressure;Samples;Min_cycle;Max_cycle;Signal;HPM_P1;HPM_P2
2023/04/07 00:00:37;;;;;;;18.77;9.75;;;;;;;12.73;60.15;101349.41;4909373;28;119012;-72
2023/04/07 00:03:06;;;;;;;14.93;9.65;;;;;;;12.70;60.11;101349.56;4914351;28;124520;-72
2023/04/07 00:05:34;;;;;;;15.05;9.18;;;;;;;12.68;60.18;101340.78;4909282;28;123391;-72
2023/04/07 00:08:01;;;;;;;12.95;8.70;;;;;;;12.68;60.15;101351.41;4899707;28;119405;-71
2023/04/07 00:10:28;;;;;;;18.73;9.43;;;;;;;12.66;60.14;101351.50;4909386;28;119809;-72
2023/04/07 00:12:56;;;;;;;19.95;9.40;;;;;;;12.65;60.13;101347.97;4901047;28;125011;-71
2023/04/07 00:15:23;;;;;;;17.42;10.07;;;;;;;12.66;60.27;101349.69;4909386;28;124009;-71
2023/04/07 00:17:51;;;;;;;16.42;9.70;;;;;;;12.66;60.24;101349.69;4906800;28;119583;-71
2023/04/07 00:20:18;;;;;;;16.05;9.70;;;;;;;12.65;60.33;101347.97;4906318;28;119405;-71
2023/04/07 00:22:45;;;;;;;16.90;9.55;;;;;;;12.64;60.16;101351.56;4907402;28;124752;-71
2023/04/07 00:25:13;;;;;;;18.10;9.82;;;;;;;12.63;60.31;101355.13;4891674;28;123479;-71
2023/04/07 00:27:40;;;;;;;18.75;9.27;;;;;;;12.63;60.33;101348.97;4909308;28;119148;-71
2023/04/07 00:30:08;;;;;;;12.98;8.02;;;;;;;12.64;60.30;101356.88;4906848;28;118108;-71
2023/04/07 00:32:35;;;;;;;17.40;9.20;;;;;;;12.61;60.21;101351.69;4910170;28;124291;-72
2023/04/07 00:35:03;;;;;;;15.32;9.13;;;;;;;12.62;60.33;101347.22;4895995;28;122838;-71
2023/04/07 00:37:30;;;;;;;16.83;8.55;;;;;;;12.61;60.48;101351.69;4912730;28;120386;-71
2023/04/07 00:39:58;;;;;;;16.85;8.65;;;;;;;12.62;60.29;101348.13;4911115;28;119785;-71
2023/04/07 00:42:25;;;;;;;15.38;8.98;;;;;;;12.61;60.38;101354.34;4912319;28;124412;-71
2023/04/07 00:44:52;;;;;;;15.82;8.43;;;;;;;12.62;60.22;101347.22;4914081;28;122818;-70
2023/04/07 00:47:20;;;;;;;14.88;9.20;;;;;;;12.61;60.27;101351.69;4902321;28;118611;-70
2023/04/07 00:49:48;;;;;;;16.40;8.32;;;;;;;12.59;60.33;101348.25;4909811;28;119347;-71
2023/04/07 00:52:15;;;;;;;14.68;8.57;;;;;;;12.59;60.27;101358.88;4910912;28;123354;-71
2023/04/07 00:54:44;;;;;;;15.00;7.95;;;;;;;12.57;60.16;101360.75;4895499;28;124030;-71
2023/04/07 00:57:12;;;;;;;15.00;7.78;;;;;;;12.56;60.29;101353.69;4912156;28;118233;-71
2023/04/07 00:59:39;;;;;;;15.10;8.15;;;;;;;12.55;60.39;101351.97;4907969;28;118071;-71
2023/04/07 01:02:14;;;;;;;16.80;8.40;;;;;;;12.56;60.49;101352.84;4908517;28;125008;-70
2023/04/07 01:04:53;;;;;;;17.27;9.20;;;;;;;12.56;60.37;101353.69;4911071;28;123639;-71
2023/04/07 01:07:32;;;;;;;13.98;8.80;;;;;;;12.58;60.38;101346.53;4910905;28;119609;-71
2023/04/07 01:10:13;;;;;;;16.13;9.07;;;;;;;12.56;60.38;101353.69;4912108;28;118937;-71
2023/04/07 01:13:05;;;;;;;18.40;9.20;;;;;;;12.53;60.48;101356.50;4907393;28;123451;-71
2023/04/07 01:15:34;;;;;;;13.45;8.95;;;;;;;12.52;60.36;101357.41;4897867;28;123349;-71
2023/04/07 01:18:31;;;;;;;16.17;9.52;;;;;;;12.50;60.45;101353.97;4885614;28;119013;-71
2023/04/07 01:21:16;;;;;;;15.48;9.38;;;;;;;12.50;60.23;101353.97;4913207;28;119411;-71
2023/04/07 01:23:52;;;;;;;15.88;8.95;;;;;;;12.50;60.31;101350.47;4898992;28;124334;-72
2023/04/07 01:26:39;;;;;;;13.45;8.18;;;;;;;12.47;60.25;101354.13;4910379;28;123769;-72
2023/04/07 01:29:25;;;;;;;13.68;7.60;;;;;;;12.45;60.23;101355.97;4910127;28;120421;-72
2023/04/07 01:31:55;;;;;;;11.52;7.18;;;;;;;12.42;60.27;101361.44;4909394;28;119681;-72
2023/04/07 01:34:25;;;;;;;12.95;7.07;;;;;;;12.38;60.39;101354.53;4882127;28;124116;-72
2023/04/07 01:36:54;;;;;;;12.68;6.25;;;;;;;12.38;60.16;101367.81;4911697;28;123129;-72
2023/04/07 01:39:23;;;;;;;12.48;6.53;;;;;;;12.35;60.40;101370.59;4910580;28;118959;-72
2023/04/07 01:41:52;;;;;;;11.30;6.80;;;;;;;12.35;60.41;101370.59;4913656;28;119846;-72
2023/04/07 01:44:20;;;;;;;8.02;6.13;;;;;;;12.34;60.16;101369.75;4913360;28;124053;-71
2023/04/07 01:46:49;;;;;;;8.25;5.40;;;;;;;12.33;60.44;101361.84;4910110;28;124010;-71
2023/04/07 01:49:18;;;;;;;11.73;5.75;;;;;;;12.31;60.26;101363.69;4911352;28;119340;-71
2023/04/07 01:51:49;;;;;;;13.50;6.00;;;;;;;12.29;60.24;101360.25;4909948;28;119651;-71
2023/04/07 01:54:17;;;;;;;10.45;5.10;;;;;;;12.27;60.12;101357.66;4907019;28;123346;-71
2023/04/07 01:56:44;;;;;;;13.40;5.95;;;;;;;12.25;60.38;101365.69;4897889;28;123478;-71
2023/04/07 01:59:12;;;;;;;13.25;5.78;;;;;;;12.24;60.44;101363.97;4898229;28;118596;-71
2023/04/07 02:01:39;;;;;;;14.00;5.57;;;;;;;12.21;60.10;101364.09;4891051;28;117934;-71
2023/04/07 02:04:20;;;;;;;12.27;5.82;;;;;;;12.19;60.37;101363.31;4910769;28;123389;-71
2023/04/07 02:06:52;;;;;;;10.05;5.47;;;;;;;12.18;60.34;101358.91;4911116;28;122984;-71
2023/04/07 02:09:30;;;;;;;10.10;5.30;;;;;;;12.17;60.49;101373.13;4908402;28;122071;-71
2023/04/07 02:12:00;;;;;;;11.85;5.55;;;;;;;12.15;60.39;101369.69;4892047;28;117863;-71
2023/04/07 02:14:32;;;;;;;10.23;4.73;;;;;;;12.12;60.20;101379.56;4896187;28;126607;-71
2023/04/07 02:17:05;;;;;;;8.95;4.88;;;;;;;12.10;60.29;101376.97;4896849;28;123307;-71
2023/04/07 02:19:34;;;;;;;11.80;5.40;;;;;;;12.08;60.34;101379.69;4912491;28;120330;-71
2023/04/07 02:22:03;;;;;;;12.27;4.97;;;;;;;12.08;60.42;101389.47;4892704;28;120268;-71
2023/04/07 02:24:31;;;;;;;10.30;5.70;;;;;;;12.08;60.42;101386.81;4908519;28;124421;-71
2023/04/07 02:26:59;;;;;;;9.65;5.35;;;;;;;12.07;60.46;101393.03;4912412;28;123847;-71
2023/04/07 02:29:27;;;;;;;10.45;5.63;;;;;;;12.08;60.40;101394.78;4899752;28;118925;-71
2023/04/07 02:31:55;;;;;;;11.60;5.10;;;;;;;12.08;60.64;101400.06;4911858;28;118610;-71
2023/04/07 02:34:22;;;;;;;10.77;4.95;;;;;;;12.08;60.61;101400.06;4900261;28;123463;-71
2023/04/07 02:36:49;;;;;;;10.63;4.90;;;;;;;12.08;60.29;101400.94;4911250;28;125280;-71
2023/04/07 02:39:17;;;;;;;11.00;5.18;;;;;;;12.09;60.53;101401.78;4902287;28;118243;-71
2023/04/07 02:41:44;;;;;;;9.63;4.43;;;;;;;12.10;60.65;101398.22;4909094;28;119396;-72
2023/04/07 02:44:11;;;;;;;10.45;4.60;;;;;;;12.10;60.45;101398.22;4900617;28;123377;-71
2023/04/07 02:46:40;;;;;;;8.82;4.68;;;;;;;12.11;60.47;101394.66;4907165;28;124264;-71
2023/04/07 02:49:07;;;;;;;12.55;4.80;;;;;;;12.11;60.42;101405.28;4896339;28;118395;-71
2023/04/07 02:51:34;;;;;;;7.93;4.78;;;;;;;12.10;60.43;101403.53;4893419;28;118724;-71
2023/04/07 02:54:01;;;;;;;11.75;4.90;;;;;;;12.11;60.50;101405.28;4911700;28;124153;-71
2023/04/07 02:56:29;;;;;;;9.73;5.15;;;;;;;12.12;60.39;101401.66;4910425;28;124300;-71
2023/04/07 02:58:57;;;;;;;16.95;6.13;;;;;;;12.11;60.43;101394.66;4908317;28;118420;-71
2023/04/07 03:01:25;;;;;;;10.82;5.25;;;;;;;12.09;60.43;101391.16;4901853;28;118046;-71
2023/04/07 03:03:52;;;;;;;12.45;5.35;;;;;;;12.08;60.46;101394.78;4910750;28;124347;-71
2023/04/07 03:06:23;;;;;;;12.40;5.38;;;;;;;12.09;60.44;101401.78;4910292;28;122986;-71
2023/04/07 03:09:16;;;;;;;9.15;5.40;;;;;;;12.08;60.43;101400.94;4908760;28;121677;-71
2023/04/07 03:11:43;;;;;;;9.07;5.38;;;;;;;12.07;60.54;101399.22;4912418;28;120143;-72
2023/04/07 03:14:11;;;;;;;8.82;4.95;;;;;;;12.08;60.46;101405.38;4915792;28;124249;-71
2023/04/07 03:16:45;;;;;;;10.10;4.70;;;;;;;12.08;60.31;101394.78;4907963;28;125787;-72
2023/04/07 03:19:15;;;;;;;10.13;5.20;;;;;;;12.06;60.47;101397.47;4898294;28;118759;-72
2023/04/07 03:21:46;;;;;;;12.30;5.75;;;;;;;12.05;60.45;101397.53;4912134;28;118028;-71
2023/04/07 03:24:13;;;;;;;13.10;5.90;;;;;;;12.04;60.55;101398.50;4893757;28;123764;-71
2023/04/07 03:26:40;;;;;;;12.70;6.07;;;;;;;12.04;60.43;101393.19;4908954;28;122962;-71
2023/04/07 03:29:18;;;;;;;10.95;5.75;;;;;;;12.04;60.65;101393.19;4905784;28;121482;-71
2023/04/07 03:31:45;;;;;;;13.82;5.82;;;;;;;12.03;60.67;101400.25;4908588;28;118897;-71
2023/04/07 03:34:15;;;;;;;10.25;5.95;;;;;;;12.04;60.68;101398.50;4907594;28;123647;-72
2023/04/07 03:36:43;;;;;;;11.73;5.93;;;;;;;12.03;60.58;101402.91;4892246;28;122987;-71
2023/04/07 03:39:10;;;;;;;13.05;5.22;;;;;;;12.02;60.59;101398.53;4910533;28;117833;-71
2023/04/07 03:41:37;;;;;;;12.05;6.50;;;;;;;12.03;60.65;101394.09;4908253;28;117906;-71
2023/04/07 03:44:05;;;;;;;8.55;5.45;;;;;;;12.02;60.55;101393.22;4896691;28;124155;-71
2023/04/07 03:46:36;;;;;;;11.18;6.03;;;;;;;12.02;60.65;101389.72;4906526;28;123122;-71
2023/04/07 03:49:04;;;;;;;10.82;5.93;;;;;;;12.01;60.62;101395.94;4911127;28;119987;-71
2023/04/07 03:51:33;;;;;;;11.30;6.38;;;;;;;12.03;60.68;101399.41;4911231;28;118230;-72
2023/04/07 03:54:02;;;;;;;11.32;5.60;;;;;;;12.04;60.72;101398.50;4892519;28;122568;-71
2023/04/07 03:56:34;;;;;;;15.25;6.18;;;;;;;12.03;60.58;101402.06;4893841;28;123168;-71
2023/04/07 03:59:02;;;;;;;13.30;6.05;;;;;;;12.02;60.70;101400.34;4894868;28;119454;-71
2023/04/07 04:01:34;;;;;;;13.63;6.05;;;;;;;12.00;60.72;101402.22;4907983;28;119859;-72
2023/04/07 04:04:11;;;;;;;15.30;6.03;;;;;;;12.00;60.79;101399.56;4892118;28;127480;-72
2023/04/07 04:06:39;;;;;;;14.68;5.80;;;;;;;11.99;60.74;101401.31;4909533;28;124333;-72
2023/04/07 04:09:25;;;;;;;13.35;5.88;;;;;;;12.00;60.79;101407.50;4910986;28;120213;-72
2023/04/07 04:11:52;;;;;;;14.65;6.03;;;;;;;12.00;60.81;101412.81;4891511;28;118711;-71
2023/04/07 04:14:19;;;;;;;11.10;5.65;;;;;;;12.00;60.73;101402.22;4907272;28;124413;-72
2023/04/07 04:16:53;;;;;;;14.73;6.28;;;;;;;11.99;60.87;101413.72;4877466;28;122946;-71
2023/04/07 04:19:28;;;;;;;11.70;5.85;;;;;;;11.99;60.75;101419.03;4911210;28;122199;-72
2023/04/07 04:21:57;;;;;;;12.32;6.30;;;;;;;11.98;60.92;101409.34;4893647;28;118406;-72
2023/04/07 04:24:26;;;;;;;13.27;6.50;;;;;;;11.98;60.77;101412.00;4898259;28;123208;-72
2023/04/07 04:26:58;;;;;;;15.75;6.30;;;;;;;11.99;60.82;101416.41;4901416;28;123073;-71
2023/04/07 04:29:26;;;;;;;12.77;5.95;;;;;;;11.98;60.91;101420.84;4894884;28;118935;-71
2023/04/07 04:31:54;;;;;;;13.80;5.53;;;;;;;11.99;60.88;101424.34;4909231;28;118298;-71
2023/04/07 04:34:21;;;;;;;14.02;5.50;;;;;;;11.99;60.83;101416.41;4898842;28;123323;-73
2023/04/07 04:36:49;;;;;;;10.10;5.30;;;;;;;11.99;60.72;101421.69;4887314;28;123042;-71
2023/04/07 04:39:18;;;;;;;10.25;5.07;;;;;;;11.97;60.72;101423.56;4893493;28;117155;-72
2023/04/07 04:41:45;;;;;;;11.38;5.25;;;;;;;11.98;60.96;101425.28;4905457;28;118169;-72
2023/04/07 04:44:13;;;;;;;15.52;5.63;;;;;;;11.97;60.98;101428.88;4901109;28;123176;-72
2023/04/07 04:46:41;;;;;;;13.73;5.38;;;;;;;11.99;61.05;101427.00;4903809;28;123049;-72
2023/04/07 04:49:10;;;;;;;11.63;5.15;;;;;;;12.00;60.90;101423.44;4891916;28;119333;-72
2023/04/07 04:51:38;;;;;;;10.40;5.50;;;;;;;11.99;60.77;101422.56;4902257;28;120450;-71
2023/04/07 04:54:13;;;;;;;12.37;5.10;;;;;;;12.00;60.79;101428.75;4898872;28;126942;-72
2023/04/07 04:56:41;;;;;;;9.63;5.22;;;;;;;12.00;60.62;101434.06;4890900;28;123092;-71
2023/04/07 04:59:09;;;;;;;11.10;5.03;;;;;;;12.02;60.72;101434.88;4893333;28;118547;-72
2023/04/07 05:01:49;;;;;;;10.65;4.55;;;;;;;12.03;60.99;101439.22;4901523;28;118831;-72
2023/04/07 05:04:17;;;;;;;11.52;5.50;;;;;;;12.02;60.74;101443.69;4894249;28;123338;-72
2023/04/07 05:06:53;;;;;;;12.60;5.00;;;;;;;12.03;60.86;101444.53;4908678;28;124925;-72
2023/04/07 05:09:26;;;;;;;11.50;4.95;;;;;;;12.03;60.80;101440.06;4905404;28;118224;-73
2023/04/07 05:11:53;;;;;;;11.63;4.53;;;;;;;12.06;60.76;101444.41;4892933;28;118579;-73
2023/04/07 05:14:22;;;;;;;14.68;5.30;;;;;;;12.07;60.69;101440.81;4895931;28;123770;-73
2023/04/07 05:16:55;;;;;;;12.88;4.82;;;;;;;12.05;60.63;101442.69;4910491;28;123576;-73
2023/04/07 05:19:28;;;;;;;14.48;4.85;;;;;;;12.06;60.67;101444.41;4909154;28;118708;-72
2023/04/07 05:22:01;;;;;;;12.27;5.20;;;;;;;12.06;60.51;101455.03;4903891;28;122030;-74
2023/04/07 05:24:37;;;;;;;12.35;5.63;;;;;;;12.05;60.68;101453.28;4906862;28;123531;-74
2023/04/07 05:27:04;;;;;;;11.82;4.95;;;;;;;12.05;60.71;101448.00;4895057;28;124008;-73
2023/04/07 05:29:32;;;;;;;11.00;5.53;;;;;;;12.05;60.70;101453.28;4911475;28;118087;-72
2023/04/07 05:32:01;;;;;;;11.93;4.75;;;;;;;12.06;60.71;101449.72;4893921;28;118200;-72
2023/04/07 05:34:30;;;;;;;12.90;5.65;;;;;;;12.05;60.63;101448.00;4910237;28;123343;-72
2023/04/07 05:36:57;;;;;;;16.23;5.95;;;;;;;12.05;60.75;101458.59;4911105;28;122991;-72
2023/04/07 05:39:25;;;;;;;16.98;6.55;;;;;;;12.04;60.75;101467.50;4903624;28;119645;-72
2023/04/07 05:41:56;;;;;;;14.57;6.68;;;;;;;12.03;60.62;101460.47;4904659;28;119103;-73
2023/04/07 05:44:26;;;;;;;14.63;6.22;;;;;;;12.03;60.68;101465.78;4911136;28;124361;-72
2023/04/07 05:46:54;;;;;;;16.02;6.53;;;;;;;12.03;60.64;101471.09;4907152;28;123089;-73
2023/04/07 05:49:23;;;;;;;17.73;6.50;;;;;;;12.01;60.70;101467.63;4903473;28;119020;-73
2023/04/07 05:51:59;;;;;;;16.67;7.07;;;;;;;12.00;60.79;101477.41;4915404;28;118152;-72
2023/04/07 05:54:29;;;;;;;20.42;6.90;;;;;;;12.01;60.68;101483.56;4903697;28;123289;-72
2023/04/07 05:56:57;;;;;;;19.30;7.10;;;;;;;12.00;60.67;101481.84;4908975;28;123211;-72
2023/04/07 05:59:28;;;;;;;19.23;7.32;;;;;;;12.01;60.75;101480.91;4905004;28;118629;-73
2023/04/07 06:01:55;;;;;;;17.65;7.63;;;;;;;12.04;60.75;101480.78;4895908;28;118472;-73
2023/04/07 06:04:24;;;;;;;16.77;7.18;;;;;;;12.04;60.79;101483.44;4905534;28;124203;-72
2023/04/07 06:06:54;;;;;;;21.35;7.78;;;;;;;12.06;60.95;101486.91;4912872;28;123200;-72
2023/04/07 06:09:23;;;;;;;17.98;7.30;;;;;;;12.06;60.85;101486.91;4911525;28;119626;-71
2023/04/07 06:11:51;;;;;;;25.23;7.90;;;;;;;12.06;60.82;101490.41;4888526;28;117957;-72
2023/04/07 06:14:19;;;;;;;17.52;7.72;;;;;;;12.08;60.81;101490.34;4907112;28;123292;-72
2023/04/07 06:16:51;;;;;;;17.40;8.27;;;;;;;12.10;60.92;101493.81;4910937;28;123978;-72
2023/04/07 06:19:18;;;;;;;15.80;7.45;;;;;;;12.11;60.93;101492.91;4914972;28;119343;-72
2023/04/07 06:21:46;;;;;;;20.73;7.57;;;;;;;12.11;60.73;101500.84;4892772;28;118283;-71
2023/04/07 06:24:13;;;;;;;21.95;8.15;;;;;;;12.12;60.83;101502.56;4909347;28;124779;-71
2023/04/07 06:26:43;;;;;;;20.80;7.60;;;;;;;12.13;61.02;101503.44;4909395;28;123881;-71
2023/04/07 06:29:11;;;;;;;19.55;7.68;;;;;;;12.15;60.83;101502.47;4886241;28;119657;-71
2023/04/07 06:31:39;;;;;;;13.80;7.63;;;;;;;12.16;60.92;101503.31;4930747;28;119810;-71
2023/04/07 06:34:06;;;;;;;21.23;7.93;;;;;;;12.18;60.92;101502.31;4929127;28;124732;-71
2023/04/07 06:36:36;;;;;;;27.02;8.40;;;;;;;12.19;61.03;101504.06;4910508;28;124363;-72
2023/04/07 06:39:04;;;;;;;22.17;8.52;;;;;;;12.19;60.67;101509.38;4913367;28;119934;-71
2023/04/07 06:41:31;;;;;;;18.88;7.80;;;;;;;12.22;60.92;101508.38;4910503;28;119174;-71
2023/04/07 06:43:59;;;;;;;19.20;8.77;;;;;;;12.22;60.79;101509.25;4912685;28;124342;-71
2023/04/07 06:46:26;;;;;;;20.42;7.82;;;;;;;12.22;60.81;101517.22;4923072;28;124003;-72
2023/04/07 06:48:53;;;;;;;19.38;7.40;;;;;;;12.21;60.84;101518.13;4927253;28;119301;-72
2023/04/07 06:51:21;;;;;;;20.45;8.43;;;;;;;12.20;60.77;101521.69;4894453;28;118107;-73
2023/04/07 06:53:52;;;;;;;23.63;8.43;;;;;;;12.20;60.82;101519.03;4911400;28;124141;-72
2023/04/07 06:56:22;;;;;;;14.30;8.35;;;;;;;12.21;61.01;101528.75;4910100;28;124363;-71
2023/04/07 06:58:49;;;;;;;23.15;8.75;;;;;;;12.22;60.81;101525.19;4911283;28;119453;-72
2023/04/07 07:01:17;;;;;;;21.50;9.38;;;;;;;12.21;60.79;101520.78;4911813;28;119470;-72
2023/04/07 07:03:45;;;;;;;21.73;9.35;;;;;;;12.22;60.77;101534.91;4912525;28;124493;-72
2023/04/07 07:06:12;;;;;;;20.90;9.60;;;;;;;12.21;61.01;101534.06;4907173;28;123959;-72
2023/04/07 07:08:40;;;;;;;20.05;9.52;;;;;;;12.21;60.90;101536.72;4905366;28;119077;-71
2023/04/07 07:11:07;;;;;;;21.05;9.70;;;;;;;12.23;60.84;101536.66;4909491;28;119583;-72
2023/04/07 07:13:34;;;;;;;19.55;9.02;;;;;;;12.23;60.82;101537.53;4910639;28;124286;-71
2023/04/07 07:16:02;;;;;;;18.75;8.98;;;;;;;12.24;60.74;101541.03;4910444;28;123547;-71
2023/04/07 07:18:30;;;;;;;17.60;8.77;;;;;;;12.24;60.94;101539.25;4893957;28;120186;-71
2023/04/07 07:21:01;;;;;;;15.32;8.38;;;;;;;12.25;60.86;101540.97;4893195;28;119469;-72
2023/04/07 07:23:28;;;;;;;17.27;8.35;;;;;;;12.28;60.87;101545.28;4889882;28;124178;-72
2023/04/07 07:25:55;;;;;;;15.38;7.70;;;;;;;12.30;60.78;101547.88;4907178;28;123809;-72
2023/04/07 07:28:22;;;;;;;16.98;8.02;;;;;;;12.30;60.80;101542.56;4908433;28;120001;-72
2023/04/07 07:30:50;;;;;;;14.35;7.90;;;;;;;12.33;60.82;101547.78;4907397;28;119167;-71
2023/04/07 07:33:17;;;;;;;18.75;7.15;;;;;;;12.35;60.85;101540.59;4909364;28;124082;-71
2023/04/07 07:35:45;;;;;;;11.73;7.05;;;;;;;12.36;60.59;101552.97;4917463;28;124012;-72
2023/04/07 07:38:13;;;;;;;17.48;7.25;;;;;;;12.39;60.90;101555.47;4909292;28;119263;-71
2023/04/07 07:40:40;;;;;;;17.30;8.20;;;;;;;12.41;60.78;101554.50;4907706;28;118702;-72
2023/04/07 07:43:07;;;;;;;14.35;7.32;;;;;;;12.44;60.81;101558.81;4910907;28;124185;-71
2023/04/07 07:45:35;;;;;;;14.18;7.50;;;;;;;12.46;60.70;101559.63;4908899;28;124055;-71
2023/04/07 07:48:02;;;;;;;18.58;7.93;;;;;;;12.48;60.69;101563.06;4886816;28;118476;-71
2023/04/07 07:50:30;;;;;;;17.23;9.02;;;;;;;12.50;60.60;101561.22;4907723;28;119477;-72
2023/04/07 07:52:57;;;;;;;18.75;8.80;;;;;;;12.54;60.54;101557.50;4910899;28;124239;-72
2023/04/07 07:55:24;;;;;;;17.42;9.55;;;;;;;12.58;60.52;101564.44;4907548;28;123982;-72
2023/04/07 07:57:53;;;;;;;17.65;9.05;;;;;;;12.62;60.63;101576.66;4912422;28;119162;-72
2023/04/07 08:00:22;;;;;;;19.23;9.85;;;;;;;12.66;60.43;101572.09;4894579;28;118448;-71
2023/04/07 08:02:50;;;;;;;20.02;10.15;;;;;;;12.69;60.37;101569.28;4895615;28;123806;-71
2023/04/07 08:05:17;;;;;;;20.60;9.98;;;;;;;12.73;60.44;101573.53;4907792;28;123917;-71
2023/04/07 08:07:46;;;;;;;20.90;10.20;;;;;;;12.77;60.28;101575.16;4912859;28;121729;-71
2023/04/07 08:10:13;;;;;;;20.45;10.65;;;;;;;12.82;60.36;101572.28;4901819;28;120275;-71
2023/04/07 08:12:40;;;;;;;19.02;10.18;;;;;;;12.88;60.35;101572.00;4869362;28;1157524;-71
2023/04/07 08:15:09;;;;;;;16.52;9.82;;;;;;;12.94;60.26;101576.19;4915275;28;123909;-71
2023/04/07 08:17:36;;;;;;;21.42;10.60;;;;;;;13.01;60.31;101578.53;4904292;28;118895;-71
2023/04/07 08:20:05;;;;;;;17.35;10.18;;;;;;;13.08;60.25;101583.59;4899199;28;119671;-71
2023/04/07 08:22:32;;;;;;;15.88;9.10;;;;;;;13.15;60.17;101587.72;4908635;28;124388;-71
2023/04/07 08:25:01;;;;;;;13.65;8.18;;;;;;;13.23;60.10;101588.25;4909477;28;123714;-71
2023/04/07 08:27:28;;;;;;;14.02;6.38;;;;;;;13.28;59.99;101591.56;4908751;28;119629;-71
2023/04/07 08:30:01;;;;;;;11.65;6.18;;;;;;;13.30;59.92;101588.81;4904460;28;119617;-71
2023/04/07 08:32:36;;;;;;;14.68;5.32;;;;;;;13.31;59.59;101586.13;4903197;28;123826;-71
2023/04/07 08:35:04;;;;;;;;;;;;;;;13.33;59.60;101594.91;4884519;28;122999;-71
2023/04/07 08:37:32;;;;;;;16.00;5.63;;;;;;;13.38;59.41;101603.53;4911175;28;119708;-71
2023/04/07 08:40:00;;;;;;;12.38;4.75;;;;;;;13.41;59.42;101606.09;4913253;28;118672;-71
2023/04/07 08:42:29;;;;;;;11.48;4.95;;;;;;;13.40;59.27;101599.03;4907156;28;123897;-72
2023/04/07 08:45:04;;;;;;;14.75;5.28;;;;;;;13.41;59.21;101607.84;4903385;28;123430;-72
2023/04/07 08:47:34;;;;;;;11.02;5.82;;;;;;;13.40;59.12;101601.69;4891796;28;120041;-72
2023/04/07 08:50:09;;;;;;;14.25;5.88;;;;;;;13.41;58.91;101608.75;4917309;28;119198;-72
2023/04/07 08:52:45;;;;;;;12.77;5.85;;;;;;;13.41;58.94;101613.19;4925106;28;125581;-72
2023/04/07 08:55:13;;;;;;;11.00;6.03;;;;;;;13.42;58.85;101620.25;4911708;28;124293;-72
2023/04/07 08:57:42;;;;;;;13.50;7.15;;;;;;;13.41;58.83;101623.81;4913595;28;120240;-72
2023/04/07 09:00:11;;;;;;;14.02;7.75;;;;;;;13.40;58.73;101622.97;4911894;28;119996;-72
2023/04/07 09:02:46;;;;;;;11.60;7.32;;;;;;;13.38;58.58;101624.84;4911499;28;123964;-72
2023/04/07 09:05:13;;;;;;;;;;;;;;;13.35;58.74;101627.63;4912338;28;124263;-71
2023/04/07 09:07:42;;;;;;;13.68;8.18;;;;;;;13.36;58.73;101626.69;4899363;28;119905;-71
2023/04/07 09:10:16;;;;;;;13.65;7.80;;;;;;;13.35;58.71;101635.59;4897338;28;118134;-72
2023/04/07 09:12:43;;;;;;;19.40;8.23;;;;;;;13.34;58.72;101633.03;4909114;28;124163;-72
2023/04/07 09:15:11;;;;;;;12.75;7.85;;;;;;;13.32;58.76;101630.44;4920025;28;124588;-72
2023/04/07 09:17:39;;;;;;;14.77;8.18;;;;;;;13.34;58.76;101639.22;4917804;28;119674;-72
2023/04/07 09:20:07;;;;;;;17.83;8.13;;;;;;;13.35;58.90;101635.59;4918051;28;118902;-72
2023/04/07 09:22:35;;;;;;;15.40;7.63;;;;;;;13.37;58.74;101638.19;4895105;28;123745;-72
2023/04/07 09:25:25;;;;;;;13.63;8.05;;;;;;;13.40;58.74;101644.25;4894963;28;124176;-72
2023/04/07 09:28:02;;;;;;;16.20;7.80;;;;;;;13.44;58.84;101640.53;4910407;28;119157;-72
2023/04/07 09:30:32;;;;;;;13.10;6.90;;;;;;;13.50;58.70;101643.84;4912629;28;119696;-72
2023/04/07 09:33:00;;;;;;;12.88;6.90;;;;;;;13.54;58.81;101645.44;4912245;28;124375;-72
2023/04/07 09:35:28;;;;;;;12.10;6.78;;;;;;;13.60;58.87;101639.88;4912893;28;123702;-71
2023/04/07 09:38:02;;;;;;;12.75;6.80;;;;;;;13.66;58.75;101639.56;4916604;28;119321;-72
2023/04/07 09:40:30;;;;;;;13.85;7.35;;;;;;;13.70;58.59;101633.19;4916193;28;118957;-72
2023/04/07 09:42:57;;;;;;;13.05;6.53;;;;;;;13.72;58.33;101633.97;4916733;28;124729;-72
2023/04/07 09:45:29;;;;;;;15.70;6.40;;;;;;;13.69;58.13;101638.56;4911109;28;124065;-71
2023/04/07 09:48:34;;;;;;;14.35;6.80;;;;;;;13.65;58.02;101643.16;4910781;28;120350;-71
2023/04/07 09:51:10;;;;;;;16.02;6.65;;;;;;;13.63;57.95;101634.38;4889473;28;119936;-71
2023/04/07 09:53:41;;;;;;;10.85;6.85;;;;;;;13.63;58.15;101639.72;4910522;28;124458;-71
2023/04/07 09:56:10;;;;;;;14.18;7.15;;;;;;;13.66;58.12;101639.56;4909253;28;123991;-71
2023/04/07 09:58:39;;;;;;;14.93;7.47;;;;;;;13.68;57.97;101643.03;4904731;28;119438;-71
2023/04/07 10:01:11;;;;;;;11.45;7.07;;;;;;;13.71;58.14;101648.22;4908013;28;119356;-71
2023/04/07 10:03:39;;;;;;;14.88;7.40;;;;;;;13.75;58.07;101647.16;4911213;28;123787;-71
2023/04/07 10:06:07;;;;;;;14.10;7.40;;;;;;;13.79;58.01;101651.41;4912472;28;125912;-72
2023/04/07 10:08:37;;;;;;;15.93;7.43;;;;;;;13.83;58.07;101646.78;4902525;28;119508;-71
2023/04/07 10:11:05;;;;;;;12.75;7.47;;;;;;;13.86;57.83;101648.44;4910394;28;119107;-71
2023/04/07 10:13:35;;;;;;;13.50;7.82;;;;;;;13.87;57.65;101653.72;4914624;28;124146;-72
2023/04/07 10:16:05;;;;;;;15.52;7.60;;;;;;;13.86;57.61;101649.31;4909481;28;124356;-71
2023/04/07 10:18:34;;;;;;;14.02;8.23;;;;;;;13.85;57.65;101654.72;4909976;28;119776;-71
2023/04/07 10:21:05;;;;;;;15.68;7.90;;;;;;;13.81;57.66;101652.19;4908109;28;118784;-71
2023/04/07 10:24:08;;;;;;;14.98;7.75;;;;;;;13.79;57.43;101651.41;4907417;28;124784;-71
2023/04/07 10:26:38;;;;;;;14.68;7.07;;;;;;;13.76;57.57;101662.16;4843190;28;123728;-71
2023/04/07 10:29:12;;;;;;;16.40;7.65;;;;;;;13.77;57.62;101658.59;4911152;28;119117;-71
2023/04/07 10:31:40;;;;;;;13.20;7.43;;;;;;;13.79;57.50;101662.03;4912168;28;118981;-71
2023/04/07 10:34:07;;;;;;;19.15;8.13;;;;;;;13.81;57.53;101657.50;4911372;28;123915;-71
2023/04/07 10:36:35;;;;;;;13.57;8.07;;;;;;;13.83;57.71;101655.66;4912363;28;123925;-71
2023/04/07 10:39:05;;;;;;;17.15;8.15;;;;;;;13.84;57.46;101664.47;4910390;28;120072;-71
2023/04/07 10:41:36;;;;;;;15.13;8.00;;;;;;;13.85;57.29;101666.22;4908236;28;120355;-71
2023/04/07 10:44:30;;;;;;;13.55;7.90;;;;;;;13.85;57.46;101662.72;4910654;28;124814;-71
2023/04/07 10:47:00;;;;;;;15.02;8.45;;;;;;;13.86;57.24;101659.09;4912774;28;124587;-71
2023/04/07 10:49:29;;;;;;;15.63;8.35;;;;;;;13.86;57.27;101677.72;4915088;28;119278;-72
2023/04/07 10:52:11;;;;;;;14.13;7.60;;;;;;;13.86;57.21;101672.41;4908440;28;119511;-71
2023/04/07 10:54:39;;;;;;;14.15;6.43;;;;;;;13.85;57.14;101676.88;4893241;28;124591;-71
2023/04/07 10:57:14;;;;;;;13.13;5.30;;;;;;;13.83;56.92;101673.44;4910642;28;124781;-71
2023/04/07 11:00:11;;;;;;;11.55;4.80;;;;;;;13.77;56.90;101679.03;4907584;28;119289;-71
2023/04/07 11:02:39;;;;;;;10.15;5.07;;;;;;;13.75;56.84;101678.22;4880011;28;118626;-71
2023/04/07 11:05:20;;;;;;;11.07;4.93;;;;;;;13.69;56.95;101682.00;4905326;28;124020;-71
2023/04/07 11:07:54;;;;;;;9.70;5.15;;;;;;;13.66;56.84;101682.16;4907938;28;124466;-72
2023/04/07 11:10:22;;;;;;;10.32;4.15;;;;;;;13.63;57.00;101687.63;4908530;28;119552;-71
2023/04/07 11:13:18;;;;;;;9.77;4.25;;;;;;;13.60;56.97;101688.63;4907456;28;118950;-71
2023/04/07 11:15:49;;;;;;;9.65;3.88;;;;;;;13.58;57.03;101684.28;4896459;28;124321;-71
2023/04/07 11:18:20;;;;;;;7.20;3.70;;;;;;;13.56;56.92;101691.47;4904821;28;123783;-71
2023/04/07 11:20:52;;;;;;;9.95;4.07;;;;;;;13.55;57.12;101695.09;4907788;28;118940;-71
2023/04/07 11:23:26;;;;;;;9.73;4.07;;;;;;;13.55;57.14;101695.94;4909172;28;118824;-71